Clovis ASC

2021-03-02 07:30:00

  • imperial
Date Time Air Temperature Relative Humidity Dewpoint Windchill Heat Index Wind Speed Wind Dir. Rain Solar Radiation Soil Temperature Soil Temperature
2m 2m 3m 3m 5cm 10cm
US/Mountain F % F F F MPH deg in MJ/m^2 F F
max avg avg
2021-03-01 07:40:00 26.0 53.8 11.5 17.4 26.0 8.1 9.9 8.5 335.9 334.6 0.00 0.0221455 35.5 38.8
2021-03-01 07:45:00 26.1 53.4 11.4 16.9 26.1 9.0 9.9 8.7 328.0 335.2 0.00 0.0234223 35.5 38.8
2021-03-01 07:50:00 26.4 53.1 11.6 17.6 26.4 8.7 9.6 8.2 4.6 336.3 0.00 0.0247781 35.5 38.7
2021-03-01 07:55:00 26.7 53.1 11.8 18.7 26.7 7.4 8.7 7.5 340.4 338.7 0.00 0.0264904 35.5 38.7
2021-03-01 08:00:00 26.9 52.4 11.8 18.5 26.9 8.1 9.2 7.8 338.8 336.7 0.00 0.0275406 35.5 38.7
2021-03-01 08:05:00 27.3 52.4 12.2 20.5 27.3 6.2 8.3 6.5 344.1 341.5 0.00 0.0312107 35.5 38.7
2021-03-01 08:10:00 27.9 51.9 12.5 20.6 27.9 6.9 7.6 6.1 334.5 342.0 0.00 0.0432610 35.6 38.7
2021-03-01 08:15:00 29.2 49.4 12.6 20.8 29.2 9.0 9.0 7.3 342.1 342.0 0.00 0.0718788 35.6 38.7
2021-03-01 08:20:00 30.8 47.9 13.4 23.0 30.8 8.7 9.6 8.5 331.7 337.4 0.00 0.0846664 35.6 38.6
2021-03-01 08:25:00 31.7 45.6 13.0 24.7 31.7 7.6 10.1 8.6 326.8 339.5 0.00 0.0794939 35.8 38.6
2021-03-01 08:30:00 32.3 44.4 13.0 24.3 32.3 9.6 11.0 8.5 346.1 344.0 0.00 0.0771171 35.9 38.6
2021-03-01 08:35:00 32.8 44.2 13.4 25.7 32.8 8.1 9.9 8.2 345.9 346.6 0.00 0.0877898 36.1 38.6
2021-03-01 08:40:00 33.5 42.4 13.1 26.5 33.5 8.3 9.6 7.4 335.8 347.6 0.00 0.0412261 36.3 38.6
2021-03-01 08:45:00 34.3 40.9 13.0 29.6 34.3 5.3 9.6 7.5 322.9 350.5 0.00 0.1233841 36.5 38.6
2021-03-01 08:50:00 35.2 40.2 13.4 30.0 35.2 6.0 7.8 6.3 348.0 352.6 0.00 0.1499384 36.8 38.7
2021-03-01 08:55:00 36.1 38.0 12.9 30.0 36.1 7.6 8.8 6.0 2.4 353.9 0.00 0.1633758 37.1 38.7
2021-03-01 09:00:00 37.3 35.8 12.6 31.8 37.3 7.1 8.1 5.4 29.8 7.2 0.00 0.1692901 37.5 38.8
2021-03-01 09:05:00 37.3 35.7 12.5 33.3 37.3 4.9 8.1 5.8 41.1 3.4 0.00 0.1755187 38.0 38.8
2021-03-01 09:10:00 37.3 36.1 12.8 32.3 37.3 6.3 9.0 6.5 350.8 5.0 0.00 0.1802791 38.5 38.9
2021-03-01 09:15:00 38.8 33.9 12.7 34.4 38.8 5.8 9.6 5.5 7.5 6.9 0.00 0.1837028 39.0 39.0
2021-03-01 09:20:00 38.9 33.7 12.7 33.9 38.9 6.9 8.8 6.1 328.2 4.0 0.00 0.1705389 39.6 39.1
2021-03-01 09:25:00 38.3 33.2 11.8 33.5 38.3 6.2 10.8 6.4 336.6 9.7 0.00 0.1716627 40.2 39.3
2021-03-01 09:30:00 38.9 32.3 11.7 34.1 38.9 6.3 8.5 6.3 19.8 357.1 0.00 0.1751817 40.8 39.4
2021-03-01 09:35:00 39.2 31.8 11.6 36.0 39.2 4.4 9.4 6.4 347.8 4.2 0.00 0.1772952 41.3 39.6
2021-03-01 09:40:00 39.2 31.5 11.4 33.5 39.2 8.1 8.8 6.2 40.2 20.0 0.00 0.1864058 41.9 39.8
2021-03-01 09:45:00 40.1 30.3 11.3 35.7 40.1 6.2 8.1 5.7 17.8 31.4 0.00 0.1928820 42.4 40.0
2021-03-01 09:50:00 39.9 30.1 11.0 35.4 39.9 6.3 11.0 6.5 35.1 45.7 0.00 0.1996828 42.9 40.2
2021-03-01 09:55:00 40.0 29.9 11.0 35.7 40.0 6.0 9.6 6.3 36.3 43.5 0.00 0.2060581 43.3 40.3
2021-03-01 10:00:00 40.9 27.3 9.7 36.5 40.9 6.5 9.6 6.5 6.9 21.0 0.00 0.2123184 43.7 40.5
2021-03-01 10:05:00 41.4 27.6 10.4 35.4 41.4 9.9 10.6 7.8 59.8 55.2 0.00 0.2115341 44.1 40.7
2021-03-01 10:10:00 41.4 27.9 10.6 37.0 41.4 6.5 8.8 6.3 75.8 28.3 0.00 0.2168818 44.4 40.8
2021-03-01 10:15:00 41.1 28.3 10.7 38.1 41.1 4.6 9.4 4.9 3.3 27.5 0.00 0.2183979 44.8 41.0
2021-03-01 10:20:00 41.4 25.9 9.0 35.9 41.4 8.8 10.6 7.1 47.7 48.6 0.00 0.2193573 45.3 41.2
2021-03-01 10:25:00 41.4 27.6 10.4 38.0 41.4 5.1 9.7 6.8 98.1 64.1 0.00 0.2217321 45.8 41.4
2021-03-01 10:30:00 42.1 26.1 9.7 40.4 42.1 3.3 9.9 5.4 346.2 57.5 0.00 0.2271238 46.3 41.6
2021-03-01 10:35:00 42.7 25.9 10.1 38.5 42.7 6.7 9.2 6.5 37.8 13.3 0.00 0.2306156 46.9 41.8
2021-03-01 10:40:00 41.7 25.6 8.9 41.7 41.7 2.6 8.5 4.7 2.8 36.3 0.00 0.2323691 47.4 42.1
2021-03-01 10:45:00 42.8 25.3 9.6 38.9 42.8 6.3 11.7 5.5 27.6 35.7 0.00 0.2354438 47.9 42.3
2021-03-01 10:50:00 43.5 23.7 8.8 40.5 43.5 5.1 7.1 3.5 58.0 38.1 0.00 0.2373005 48.5 42.5
2021-03-01 10:55:00 43.8 24.7 10.0 38.9 43.8 8.8 9.2 4.6 17.1 42.8 0.00 0.2401010 49.0 42.8
2021-03-01 11:00:00 43.2 25.3 10.0 41.2 43.2 3.8 9.6 5.7 76.4 52.1 0.00 0.2419915 49.6 43.1
2021-03-01 11:05:00 43.6 24.9 10.0 40.0 43.6 6.0 7.8 5.7 107.9 87.9 0.00 0.2440083 50.2 43.3
2021-03-01 11:10:00 44.8 24.7 10.8 41.1 44.8 6.7 7.6 4.5 35.5 53.7 0.00 0.2457988 50.7 43.6
2021-03-01 11:15:00 44.7 22.9 9.0 41.3 44.7 6.0 10.8 5.8 23.1 36.6 0.00 0.2472335 51.3 43.9
2021-03-01 11:20:00 44.3 23.8 9.5 40.7 44.3 6.2 12.2 7.3 349.3 10.7 0.00 0.2485824 51.8 44.2
2021-03-01 11:25:00 44.9 23.5 9.8 40.4 44.9 8.1 11.2 8.4 0.4 353.6 0.00 0.2496553 52.3 44.5
2021-03-01 11:30:00 45.2 23.9 10.4 41.2 45.2 7.4 10.1 6.6 339.3 350.9 0.00 0.2504591 52.8 44.7
2021-03-01 11:35:00 45.1 23.7 10.2 42.0 45.1 5.8 8.3 5.0 17.3 327.0 0.00 0.2516051 53.3 45.0
2021-03-01 11:40:00 45.8 22.0 9.0 41.0 45.8 9.6 11.2 7.1 39.3 48.7 0.00 0.2528121 53.8 45.3
2021-03-01 11:45:00 45.5 22.3 9.1 39.7 45.5 12.2 12.2 7.0 57.6 72.3 0.00 0.2532763 54.2 45.6
2021-03-01 11:50:00 45.6 22.4 9.3 41.8 45.6 7.1 12.1 7.0 85.0 75.4 0.00 0.2537685 54.7 45.8
2021-03-01 11:55:00 45.6 22.2 9.1 43.2 45.6 4.7 8.5 5.2 335.2 24.1 0.00 0.2544013 55.1 46.0
2021-03-01 12:00:00 44.8 21.8 8.0 40.7 44.8 7.4 9.4 5.9 51.6 47.0 0.00 0.2541521 55.5 46.3
2021-03-01 12:05:00 45.3 21.6 8.3 43.0 45.3 4.6 11.2 6.2 60.4 77.8 0.00 0.2536769 55.9 46.5
2021-03-01 12:10:00 46.1 21.4 8.7 43.0 46.1 6.0 11.7 7.6 75.8 59.8 0.00 0.2535349 56.3 46.7
2021-03-01 12:15:00 46.8 22.6 10.5 44.1 46.8 5.6 10.3 5.2 64.0 58.0 0.00 0.2532967 56.7 46.9
2021-03-01 12:20:00 46.2 20.9 8.2 45.2 46.2 3.1 8.1 5.4 92.7 95.6 0.00 0.2523980 57.1 47.2
2021-03-01 12:25:00 45.1 22.3 8.8 44.0 45.1 3.1 9.6 5.2 66.9 86.6 0.00 0.2511011 57.5 47.4
2021-03-01 12:30:00 46.0 21.2 8.4 41.0 46.0 10.3 13.9 6.8 61.1 48.2 0.00 0.2504579 57.8 47.6
2021-03-01 12:35:00 45.9 21.3 8.4 41.7 45.9 8.1 13.3 7.8 31.7 61.6 0.00 0.2496065 58.2 47.8
2021-03-01 12:40:00 46.0 20.9 8.1 41.9 46.0 8.0 12.6 8.9 60.7 52.4 0.00 0.2483765 58.5 48.1
2021-03-01 12:45:00 46.0 21.2 8.4 41.7 46.0 8.3 11.0 7.0 68.1 73.3 0.00 0.2468996 58.9 48.3
2021-03-01 12:50:00 46.3 20.7 8.1 45.2 46.3 3.3 9.2 5.1 88.0 77.0 0.00 0.2457195 59.1 48.5
2021-03-01 12:55:00 47.3 20.1 8.4 44.3 47.3 6.3 10.6 7.0 10.2 5.2 0.00 0.2445202 59.4 48.8
2021-03-01 13:00:00 46.8 20.4 8.2 43.6 46.8 6.3 9.7 7.5 64.4 9.7 0.00 0.2422649 59.6 49.0
2021-03-01 13:05:00 46.9 20.4 8.3 44.9 46.9 4.6 9.4 6.8 339.1 47.3 0.00 0.2406031 59.9 49.2
2021-03-01 13:10:00 46.4 20.7 8.2 44.3 46.4 4.6 9.4 6.1 265.1 268.4 0.00 0.2384076 60.2 49.5
2021-03-01 13:15:00 47.3 19.5 7.6 44.5 47.3 5.8 5.8 3.0 348.2 195.3 0.00 0.2362048 60.4 49.7
2021-03-01 13:20:00 47.4 19.8 8.0 44.9 47.4 5.5 9.0 4.7 334.7 281.9 0.00 0.2344473 60.7 49.9
2021-03-01 13:25:00 46.9 19.5 7.3 46.9 46.9 2.8 9.4 6.5 305.7 324.0 0.00 0.2319172 60.9 50.1
2021-03-01 13:30:00 47.8 20.0 8.7 45.9 47.8 4.6 6.7 3.6 315.7 119.5 0.00 0.2290535 61.2 50.4
2021-03-01 13:35:00 47.4 19.5 7.7 47.4 47.4 3.0 13.9 7.4 333.1 340.3 0.00 0.2271578 61.5 50.6
2021-03-01 13:40:00 47.7 18.9 7.3 44.4 47.7 6.9 9.0 5.5 258.6 324.6 0.00 0.2244587 61.7 50.8
2021-03-01 13:45:00 48.0 18.4 6.9 45.9 48.0 4.9 9.9 4.9 64.1 337.8 0.00 0.2198566 62.0 51.0
2021-03-01 13:50:00 47.1 19.6 7.6 42.6 47.1 9.4 12.1 8.1 339.1 347.8 0.00 0.2181240 62.2 51.2
2021-03-01 13:55:00 46.9 19.3 7.1 44.9 46.9 4.6 13.7 8.6 11.2 351.9 0.00 0.2147580 62.4 51.5
2021-03-01 14:00:00 47.5 19.2 7.4 42.8 47.5 10.3 11.5 7.1 320.1 345.0 0.00 0.2121074 62.5 51.7
2021-03-01 14:05:00 47.1 19.5 7.5 47.1 47.1 3.0 8.8 5.4 1.2 28.3 0.00 0.2089543 62.7 51.9
2021-03-01 14:10:00 47.9 18.9 7.5 47.9 47.9 1.5 5.1 2.8 301.0 354.5 0.00 0.2045945 62.8 52.1
2021-03-01 14:15:00 48.4 18.8 7.8 48.4 48.4 2.8 6.5 4.0 244.4 356.3 0.00 0.2017626 62.9 52.3
2021-03-01 14:20:00 48.2 18.6 7.4 46.9 48.2 3.8 5.6 3.0 107.2 26.7 0.00 0.1976223 63.0 52.4
2021-03-01 14:25:00 47.3 18.8 6.9 47.3 47.3 2.4 8.3 4.0 90.3 71.5 0.00 0.1936327 63.1 52.6
2021-03-01 14:30:00 48.2 18.2 6.8 48.2 48.2 1.5 6.2 3.3 128.8 345.6 0.00 0.1903012 63.3 52.8
2021-03-01 14:35:00 48.7 18.1 7.1 47.2 48.7 4.2 5.8 3.8 195.7 178.7 0.00 0.1857939 63.4 53.0
2021-03-01 14:40:00 49.2 18.1 7.5 49.2 49.2 1.5 5.6 2.6 272.0 169.4 0.00 0.1814151 63.5 53.1
2021-03-01 14:45:00 49.4 18.2 7.9 46.4 49.4 7.1 8.5 4.3 12.5 308.5 0.00 0.1774788 63.7 53.3
2021-03-01 14:50:00 49.0 17.9 7.1 49.0 49.0 1.3 7.6 4.8 57.3 338.1 0.00 0.1734531 63.7 53.5
2021-03-01 14:55:00 48.5 18.4 7.4 47.7 48.5 3.3 7.1 4.5 51.9 319.0 0.00 0.1685405 63.8 53.6
2021-03-01 15:00:00 48.9 18.3 7.5 47.1 48.9 4.7 7.4 4.1 188.7 307.2 0.00 0.1644859 63.9 53.8
2021-03-01 15:05:00 49.2 17.9 7.4 47.9 49.2 4.0 7.6 4.2 217.9 242.6 0.00 0.1600052 63.9 53.9
2021-03-01 15:10:00 48.8 18.8 8.0 42.0 48.8 20.1 20.1 6.1 309.6 353.5 0.00 0.1490821 64.0 54.1
2021-03-01 15:15:00 48.1 19.1 7.9 45.6 48.1 5.6 23.5 8.2 309.6 291.2 0.00 0.1502463 64.0 54.2
2021-03-01 15:20:00 48.5 19.2 8.3 44.4 48.5 9.4 9.4 7.0 335.5 345.6 0.00 0.1462693 63.9 54.3
2021-03-01 15:25:00 48.6 18.8 7.9 45.2 48.6 7.6 11.0 7.6 327.7 331.3 0.00 0.1415145 63.8 54.4
2021-03-01 15:30:00 47.8 18.9 7.3 45.6 47.8 4.9 12.2 6.7 344.0 345.6 0.00 0.1362897 63.7 54.5
2021-03-01 15:35:00 48.5 18.7 7.8 47.7 48.5 3.3 6.7 4.3 320.7 347.8 0.00 0.1307922 63.6 54.6
2021-03-01 15:40:00 48.6 18.4 7.5 45.1 48.6 7.8 9.7 6.4 326.6 329.2 0.00 0.1260614 63.4 54.7
2021-03-01 15:45:00 47.9 18.7 7.2 47.9 47.9 2.6 11.0 7.0 311.0 290.9 0.00 0.1209749 63.3 54.7
2021-03-01 15:50:00 48.9 18.1 7.4 48.9 48.9 2.2 4.9 2.0 342.6 4.2 0.00 0.1159100 63.2 54.8
2021-03-01 15:55:00 49.0 18.1 7.4 46.1 49.0 6.5 8.3 4.7 263.5 266.5 0.00 0.1108981 63.0 54.8
2021-03-01 16:00:00 48.8 18.1 7.3 48.8 48.8 1.0 6.7 3.1 258.2 215.5 0.00 0.1052442 62.8 54.8
2021-03-01 16:05:00 49.6 17.8 7.6 49.6 49.6 1.2 2.6 1.4 280.2 306.7 0.00 0.1000645 62.7 54.8
2021-03-01 16:10:00 50.2 17.3 7.4 50.2 50.2 4.6 4.6 2.5 208.1 215.5 0.00 0.0954948 62.5 54.8
2021-03-01 16:15:00 49.5 17.4 6.9 46.7 49.5 6.9 6.9 2.9 289.0 183.3 0.00 0.0903561 62.3 54.8
2021-03-01 16:20:00 48.4 16.3 4.6 44.2 48.4 9.4 10.1 7.7 307.4 292.0 0.00 0.0865039 62.2 54.8
2021-03-01 16:25:00 47.9 16.7 4.7 45.4 47.9 5.5 9.7 7.6 277.2 295.0 0.00 0.0817792 62.0 54.8
2021-03-01 16:30:00 48.2 16.6 4.9 44.1 48.2 9.0 9.4 6.8 274.0 287.0 0.00 0.0772187 61.8 54.8
2021-03-01 16:35:00 47.9 17.5 5.8 46.6 47.9 3.8 8.7 6.5 284.3 284.6 0.00 0.0722528 61.5 54.8
2021-03-01 16:40:00 47.9 16.8 4.8 43.3 47.9 10.3 10.8 7.9 326.1 322.7 0.00 0.0674213 61.2 54.8
2021-03-01 16:45:00 47.9 16.3 4.2 47.9 47.9 2.4 9.2 5.1 216.4 282.6 0.00 0.0623875 60.9 54.7
2021-03-01 16:50:00 48.0 16.8 5.0 45.5 48.0 5.6 8.7 5.7 341.6 341.3 0.00 0.0576566 60.6 54.7
2021-03-01 16:55:00 47.8 16.7 4.7 46.7 47.8 3.5 7.6 5.4 46.1 359.3 0.00 0.0530920 60.2 54.7
2021-03-01 17:00:00 47.8 17.0 5.1 46.2 47.8 4.2 6.5 4.2 11.9 336.9 0.00 0.0483552 59.9 54.6
2021-03-01 17:05:00 47.3 17.7 5.6 44.6 47.3 5.8 6.7 5.4 329.2 337.7 0.00 0.0437405 59.5 54.6
2021-03-01 17:10:00 47.3 17.8 5.6 47.3 47.3 2.2 5.5 3.9 292.2 316.2 0.00 0.0394130 59.2 54.5
2021-03-01 17:15:00 47.0 18.2 5.9 43.9 47.0 6.3 7.1 5.3 329.6 319.7 0.00 0.0349332 58.8 54.4
2021-03-01 17:20:00 46.8 18.2 5.8 45.2 46.8 4.0 6.3 4.8 335.0 327.7 0.00 0.0304029 58.4 54.3
2021-03-01 17:25:00 46.7 18.1 5.5 45.5 46.7 3.5 4.9 4.2 333.0 334.4 0.00 0.0257380 58.1 54.2
2021-03-01 17:30:00 46.8 19.7 7.4 46.8 46.8 2.8 4.0 3.0 337.6 341.8 0.00 0.0210027 57.7 54.1
2021-03-01 17:35:00 46.4 19.5 6.9 46.4 46.4 1.7 3.0 2.2 324.8 340.0 0.00 0.0161048 57.3 54.0
2021-03-01 17:40:00 46.0 19.4 6.4 46.0 46.0 0.0 2.4 1.5 0.4 341.2 0.00 0.0112145 56.9 53.9
2021-03-01 17:45:00 45.6 19.5 6.3 45.6 45.6 0.0 0.8 0.0 346.9 352.9 0.00 0.0065958 56.5 53.8
2021-03-01 17:50:00 44.9 19.8 6.0 44.9 44.9 1.7 2.2 1.5 9.0 356.5 0.00 0.0010368 56.1 53.6
2021-03-01 17:55:00 44.3 19.9 5.6 44.3 44.3 1.3 1.9 1.6 11.1 347.5 0.00 0.0000000 55.7 53.5
2021-03-01 18:00:00 44.3 19.7 5.4 44.3 44.3 1.7 2.2 1.7 17.0 8.6 0.00 0.0000000 55.3 53.4
2021-03-01 18:05:00 44.4 19.2 4.9 44.4 44.4 2.8 3.0 2.6 12.2 13.7 0.00 0.0000000 54.9 53.2
2021-03-01 18:10:00 43.7 19.9 5.1 43.7 43.7 2.6 2.8 2.6 7.4 3.4 0.00 0.0000000 54.4 53.1
2021-03-01 18:15:00 43.3 20.1 5.0 43.3 43.3 2.8 3.1 2.9 13.6 10.2 0.00 0.0000000 54.0 52.9
2021-03-01 18:20:00 43.4 20.1 5.1 43.4 43.4 1.7 2.6 2.1 23.5 20.4 0.00 0.0000000 53.6 52.7
2021-03-01 18:25:00 43.5 20.0 5.0 43.5 43.5 2.6 2.6 1.9 9.9 24.9 0.00 0.0000000 53.2 52.6
2021-03-01 18:30:00 43.5 20.0 5.0 43.5 43.5 2.4 3.0 2.6 29.2 18.0 0.00 0.0000000 52.8 52.4
2021-03-01 18:35:00 43.4 20.2 5.1 43.4 43.4 2.2 2.6 2.4 36.7 35.1 0.00 0.0000000 52.4 52.2
2021-03-01 18:40:00 42.8 20.5 5.0 42.8 42.8 2.8 2.8 2.5 41.3 40.2 0.00 0.0000000 52.1 52.0
2021-03-01 18:45:00 42.8 20.4 4.9 42.8 42.8 2.8 2.8 2.6 47.3 43.3 0.00 0.0000000 51.7 51.9
2021-03-01 18:50:00 42.6 20.5 4.9 42.6 42.6 2.6 3.0 2.6 55.1 48.0 0.00 0.0000000 51.4 51.7
2021-03-01 18:55:00 42.4 20.7 4.8 42.4 42.4 2.2 2.8 2.5 51.3 50.7 0.00 0.0000000 51.0 51.5
2021-03-01 19:00:00 41.6 21.5 5.0 41.6 41.6 2.1 2.2 2.0 46.3 48.0 0.00 0.0000000 50.6 51.4
2021-03-01 19:05:00 41.1 21.9 5.0 41.1 41.1 2.2 2.4 2.2 38.7 47.1 0.00 0.0000000 50.3 51.2
2021-03-01 19:10:00 40.7 22.3 5.0 40.7 40.7 1.9 2.4 2.1 53.2 45.9 0.00 0.0000000 50.0 51.0
2021-03-01 19:15:00 35.6 30.3 7.4 32.7 35.6 3.5 5.1 3.3 157.6 137.2 0.00 0.0000000 49.7 50.8
2021-03-01 19:20:00 34.0 32.9 7.8 34.0 34.0 1.7 3.3 2.5 181.8 173.5 0.00 0.0000000 49.4 50.6
2021-03-01 19:25:00 34.8 34.6 9.6 34.8 34.8 1.7 2.1 1.3 131.9 116.3 0.00 0.0000000 49.0 50.5
2021-03-01 19:30:00 36.4 31.9 9.2 36.4 36.4 1.7 2.2 1.7 60.1 137.9 0.00 0.0000000 48.7 50.3
2021-03-01 19:35:00 37.3 29.6 8.4 37.3 37.3 1.9 2.2 1.9 129.9 110.5 0.00 0.0000000 48.4 50.1
2021-03-01 19:40:00 36.2 30.3 7.9 33.2 36.2 3.7 4.0 3.0 177.0 165.1 0.00 0.0000000 48.1 49.9
2021-03-01 19:45:00 35.3 30.6 7.4 32.7 35.3 3.3 4.0 3.5 164.8 159.6 0.00 0.0000000 47.8 49.8
2021-03-01 19:50:00 35.0 30.8 7.2 35.0 35.0 3.0 3.1 2.9 159.8 165.9 0.00 0.0000000 47.6 49.6
2021-03-01 19:55:00 35.3 30.2 7.0 35.3 35.3 3.0 3.5 2.9 163.2 158.0 0.00 0.0000000 47.3 49.4
2021-03-01 20:00:00 35.2 30.6 7.3 35.2 35.2 2.4 2.8 2.4 167.3 169.5 0.00 0.0000000 47.1 49.3
2021-03-01 20:05:00 35.5 30.5 7.4 35.5 35.5 1.3 2.4 1.9 139.2 167.3 0.00 0.0000000 46.8 49.1
2021-03-01 20:10:00 35.4 30.2 7.2 35.4 35.4 2.1 2.1 1.8 108.9 129.8 0.00 0.0000000 46.6 48.9
2021-03-01 20:15:00 35.8 34.0 10.1 35.8 35.8 2.1 2.8 2.2 95.9 114.2 0.00 0.0000000 46.3 48.8
2021-03-01 20:20:00 35.6 33.3 9.5 35.6 35.6 2.4 2.8 2.4 150.7 133.5 0.00 0.0000000 46.1 48.6
2021-03-01 20:25:00 35.8 31.1 8.1 32.7 35.8 3.7 3.7 3.0 146.9 143.3 0.00 0.0000000 45.9 48.5
2021-03-01 20:30:00 35.4 33.8 9.7 35.4 35.4 3.0 3.7 3.4 142.9 140.2 0.00 0.0000000 45.6 48.3
2021-03-01 20:35:00 35.4 30.8 7.6 35.4 35.4 2.2 3.7 2.8 177.5 157.1 0.00 0.0000000 45.4 48.1
2021-03-01 20:40:00 34.8 31.4 7.5 34.8 34.8 1.7 2.4 1.9 143.9 172.0 0.00 0.0000000 45.2 48.0
2021-03-01 20:45:00 34.6 31.4 7.3 34.6 34.6 3.0 3.1 2.5 115.2 130.4 0.00 0.0000000 45.0 47.9
2021-03-01 20:50:00 34.5 41.3 13.4 34.5 34.5 2.4 3.0 2.5 97.0 109.3 0.00 0.0000000 44.8 47.7
2021-03-01 20:55:00 34.2 31.8 7.3 31.4 34.2 3.3 4.2 2.9 96.1 91.3 0.00 0.0000000 44.6 47.6
2021-03-01 21:00:00 33.9 34.2 8.6 33.9 33.9 1.9 3.3 2.4 134.2 117.3 0.00 0.0000000 44.4 47.4
2021-03-01 21:05:00 33.9 35.7 9.6 33.9 33.9 2.4 3.0 2.5 125.6 123.4 0.00 0.0000000 44.2 47.3
2021-03-01 21:10:00 33.6 36.2 9.6 33.6 33.6 1.9 2.6 2.2 146.9 135.2 0.00 0.0000000 44.0 47.1
2021-03-01 21:15:00 33.0 36.2 9.1 33.0 33.0 1.7 2.2 1.9 208.7 183.2 0.00 0.0000000 43.9 47.0
2021-03-01 21:20:00 32.6 36.5 8.8 32.6 32.6 1.9 1.9 1.5 218.5 202.6 0.00 0.0000000 43.7 46.9
2021-03-01 21:25:00 32.5 36.0 8.5 29.6 32.5 3.1 3.3 2.8 222.9 224.2 0.00 0.0000000 43.5 46.7
2021-03-01 21:30:00 32.0 35.3 7.6 32.0 32.0 1.9 3.1 2.5 189.5 212.3 0.00 0.0000000 43.3 46.6
2021-03-01 21:35:00 31.7 35.9 7.7 31.7 31.7 2.1 2.1 1.7 237.0 219.9 0.00 0.0000000 43.1 46.5
2021-03-01 21:40:00 30.8 36.9 7.5 30.8 30.8 1.7 2.2 2.0 225.8 232.2 0.00 0.0000000 43.0 46.3
2021-03-01 21:45:00 30.7 37.4 7.7 30.7 30.7 2.4 3.0 2.2 263.2 248.2 0.00 0.0000000 42.8 46.2
2021-03-01 21:50:00 30.0 38.0 7.4 30.0 30.0 1.7 2.8 2.3 264.2 264.2 0.00 0.0000000 42.6 46.1
2021-03-01 21:55:00 30.6 37.0 7.4 30.6 30.6 1.7 2.2 2.0 270.6 264.5 0.00 0.0000000 42.5 46.0
2021-03-01 22:00:00 31.6 36.8 8.1 31.6 31.6 1.2 1.7 1.3 255.0 250.0 0.00 0.0000000 42.3 45.8
2021-03-01 22:05:00 32.1 36.7 8.5 32.1 32.1 0.0 1.0 0.2 258.4 257.8 0.00 0.0000000 42.1 45.7
2021-03-01 22:10:00 31.3 37.6 8.3 31.3 31.3 2.1 2.1 1.0 278.2 274.4 0.00 0.0000000 42.0 45.6
2021-03-01 22:15:00 31.2 37.4 8.2 31.2 31.2 2.8 2.8 2.3 254.9 266.7 0.00 0.0000000 41.8 45.5
2021-03-01 22:20:00 31.1 38.3 8.6 28.1 31.1 3.1 3.3 3.0 254.9 250.5 0.00 0.0000000 41.7 45.4
2021-03-01 22:25:00 31.8 37.0 8.4 31.8 31.8 2.6 3.1 2.8 262.5 261.7 0.00 0.0000000 41.5 45.2
2021-03-01 22:30:00 31.8 36.6 8.2 31.8 31.8 3.0 3.1 2.9 257.3 261.7 0.00 0.0000000 41.4 45.1
2021-03-01 22:35:00 31.6 36.4 7.9 28.2 31.6 3.5 3.5 3.2 252.4 256.6 0.00 0.0000000 41.2 45.0
2021-03-01 22:40:00 30.8 37.2 7.7 27.1 30.8 3.7 3.7 3.5 249.4 253.8 0.00 0.0000000 41.1 44.9
2021-03-01 22:45:00 30.3 38.1 7.8 26.7 30.3 3.5 3.8 3.6 232.3 241.4 0.00 0.0000000 41.0 44.8
2021-03-01 22:50:00 30.6 37.5 7.7 26.4 30.6 4.0 4.2 3.8 242.1 235.6 0.00 0.0000000 40.8 44.7
2021-03-01 22:55:00 29.8 39.0 7.8 25.5 29.8 4.0 4.6 4.4 235.3 238.0 0.00 0.0000000 40.7 44.5
2021-03-01 23:00:00 29.4 39.2 7.5 23.7 29.4 5.3 5.3 4.3 223.0 228.4 0.00 0.0000000 40.6 44.4
2021-03-01 23:05:00 28.4 40.3 7.3 22.9 28.4 4.9 5.6 5.1 224.4 223.6 0.00 0.0000000 40.4 44.3
2021-03-01 23:10:00 27.9 41.2 7.4 22.2 27.9 5.1 5.5 5.1 210.6 216.9 0.00 0.0000000 40.3 44.2
2021-03-01 23:15:00 27.7 43.1 8.1 24.2 27.7 3.1 5.6 4.5 218.5 212.9 0.00 0.0000000 40.2 44.1
2021-03-01 23:20:00 27.5 42.0 7.3 23.2 27.5 3.7 3.8 3.5 225.3 224.0 0.00 0.0000000 40.1 44.0
2021-03-01 23:25:00 27.2 42.4 7.3 22.6 27.2 3.8 4.0 3.8 220.5 222.2 0.00 0.0000000 39.9 43.9
2021-03-01 23:30:00 26.8 43.2 7.3 21.0 26.8 4.9 5.3 4.5 222.5 219.4 0.00 0.0000000 39.8 43.8
2021-03-01 23:35:00 26.9 41.3 6.4 26.9 26.9 2.6 4.7 3.8 227.1 230.9 0.00 0.0000000 39.7 43.7
2021-03-01 23:40:00 26.5 42.1 6.5 22.9 26.5 3.1 3.1 2.7 246.6 240.1 0.00 0.0000000 39.6 43.6
2021-03-01 23:45:00 26.1 43.4 6.9 22.2 26.1 3.3 3.3 2.7 239.3 244.9 0.00 0.0000000 39.4 43.5
2021-03-01 23:50:00 26.2 42.3 6.4 22.1 26.2 3.5 4.2 3.8 231.3 234.8 0.00 0.0000000 39.3 43.4
2021-03-01 23:55:00 26.2 42.3 6.3 22.0 26.2 3.5 4.7 4.0 233.5 228.2 0.00 0.0000000 39.2 43.3
2021-03-02 00:00:00 25.4 43.5 6.2 21.3 25.4 3.3 3.8 3.3 233.8 240.5 0.00 0.0000000 39.1 43.2
2021-03-02 00:05:00 25.0 44.0 6.1 25.0 25.0 2.6 3.5 2.8 250.4 241.5 0.00 0.0000000 39.0 43.1
2021-03-02 00:10:00 25.0 44.0 6.1 19.9 25.0 4.0 4.0 3.5 243.2 247.5 0.00 0.0000000 38.8 43.0
2021-03-02 00:15:00 24.7 44.9 6.3 17.9 24.7 5.6 5.6 4.8 239.3 245.0 0.00 0.0000000 38.7 42.9
2021-03-02 00:20:00 24.4 45.5 6.3 17.5 24.4 5.6 6.3 6.0 243.2 244.5 0.00 0.0000000 38.6 42.9
2021-03-02 00:25:00 24.3 45.9 6.4 17.9 24.3 5.1 5.8 5.4 234.5 238.5 0.00 0.0000000 38.5 42.8
2021-03-02 00:30:00 24.0 48.3 7.2 16.8 24.0 5.8 6.3 5.6 241.2 239.5 0.00 0.0000000 38.4 42.7
2021-03-02 00:35:00 24.2 48.9 7.8 17.1 24.2 5.8 6.5 6.0 245.2 243.9 0.00 0.0000000 38.3 42.6
2021-03-02 00:40:00 24.2 49.0 7.7 17.0 24.2 5.8 6.2 5.9 252.5 250.2 0.00 0.0000000 38.2 42.5
2021-03-02 00:45:00 24.5 49.1 8.1 17.1 24.5 6.2 6.7 6.3 264.0 257.8 0.00 0.0000000 38.0 42.4
2021-03-02 00:50:00 25.2 46.3 7.4 17.9 25.2 6.2 6.9 6.4 265.7 263.3 0.00 0.0000000 37.9 42.3
2021-03-02 00:55:00 24.9 47.7 7.8 17.7 24.9 6.0 6.5 6.1 269.7 265.3 0.00 0.0000000 37.8 42.2
2021-03-02 01:00:00 24.6 49.9 8.6 17.3 24.6 6.2 6.9 6.4 261.3 264.0 0.00 0.0000000 37.8 42.1
2021-03-02 01:05:00 24.8 50.7 9.1 16.6 24.8 7.2 7.4 6.6 253.3 259.2 0.00 0.0000000 37.7 42.0
2021-03-02 01:10:00 25.1 51.2 9.6 16.9 25.1 7.2 7.6 7.2 256.7 258.7 0.00 0.0000000 37.6 42.0
2021-03-02 01:15:00 25.3 51.7 9.9 16.9 25.3 7.6 7.6 7.1 256.3 259.3 0.00 0.0000000 37.5 41.9
2021-03-02 01:20:00 25.7 53.7 11.2 17.4 25.7 7.6 8.1 7.3 270.7 258.9 0.00 0.0000000 37.4 41.8
2021-03-02 01:25:00 25.7 53.9 11.3 17.6 25.7 7.4 7.8 7.3 261.3 260.7 0.00 0.0000000 37.3 41.7
2021-03-02 01:30:00 25.4 57.1 12.3 17.2 25.4 7.4 7.8 7.3 254.1 260.0 0.00 0.0000000 37.2 41.6
2021-03-02 01:35:00 25.2 59.7 13.2 17.2 25.2 7.1 7.6 7.1 257.5 257.2 0.00 0.0000000 37.2 41.6
2021-03-02 01:40:00 25.0 62.7 14.0 17.3 25.0 6.5 7.6 6.7 252.4 254.1 0.00 0.0000000 37.1 41.5
2021-03-02 01:45:00 24.9 65.3 14.9 17.4 24.9 6.3 6.7 6.1 235.3 251.7 0.00 0.0000000 37.1 41.4
2021-03-02 01:50:00 24.2 63.4 13.6 17.8 24.2 5.1 6.0 5.3 241.8 244.5 0.00 0.0000000 37.0 41.3
2021-03-02 01:55:00 23.4 67.4 14.2 16.5 23.4 5.5 5.8 5.3 255.2 246.8 0.00 0.0000000 36.9 41.3
2021-03-02 02:00:00 23.3 72.8 15.9 15.1 23.3 6.9 6.9 5.9 261.0 254.3 0.00 0.0000000 36.9 41.2
2021-03-02 02:05:00 24.2 74.4 17.2 16.2 24.2 6.9 7.6 6.9 250.3 256.9 0.00 0.0000000 36.8 41.1
2021-03-02 02:10:00 24.8 73.8 17.7 17.2 24.8 6.5 7.2 6.7 257.6 255.4 0.00 0.0000000 36.7 41.1
2021-03-02 02:15:00 24.8 73.6 17.6 16.6 24.8 7.2 7.8 6.8 260.3 256.4 0.00 0.0000000 36.6 41.0
2021-03-02 02:20:00 24.3 75.4 17.7 14.9 24.3 8.8 8.8 7.1 266.7 258.2 0.00 0.0000000 36.6 40.9
2021-03-02 02:25:00 24.3 73.9 17.2 15.8 24.3 7.6 8.3 7.8 263.9 258.0 0.00 0.0000000 36.5 40.9
2021-03-02 02:30:00 24.3 74.6 17.4 16.0 24.3 7.2 8.0 7.3 259.5 255.8 0.00 0.0000000 36.5 40.8
2021-03-02 02:35:00 24.7 73.5 17.5 15.7 24.7 8.3 9.0 8.0 259.1 258.4 0.00 0.0000000 36.4 40.7
2021-03-02 02:40:00 24.6 75.1 17.8 15.3 24.6 8.7 9.6 8.4 256.5 258.5 0.00 0.0000000 36.3 40.7
2021-03-02 02:45:00 24.7 77.1 18.6 14.8 24.7 9.7 9.9 8.9 249.4 258.3 0.00 0.0000000 36.3 40.6
2021-03-02 02:50:00 24.6 78.4 18.8 15.7 24.6 8.1 9.7 8.4 251.2 256.0 0.00 0.0000000 36.2 40.6
2021-03-02 02:55:00 24.6 79.1 19.1 16.0 24.6 7.8 9.4 8.3 245.7 252.1 0.00 0.0000000 36.2 40.5
2021-03-02 03:00:00 24.6 79.4 19.2 16.7 24.6 6.9 8.8 7.7 261.5 251.0 0.00 0.0000000 36.1 40.4
2021-03-02 03:05:00 24.9 80.8 19.8 15.2 24.9 9.4 10.1 8.5 251.1 248.3 0.00 0.0000000 36.1 40.4
2021-03-02 03:10:00 24.9 80.6 19.8 15.2 24.9 9.4 10.5 8.5 251.0 244.9 0.00 0.0000000 36.0 40.3
2021-03-02 03:15:00 25.0 81.8 20.2 15.5 25.0 9.2 11.2 9.4 243.7 245.7 0.00 0.0000000 36.0 40.3
2021-03-02 03:20:00 25.2 82.7 20.7 14.6 25.2 11.2 11.2 9.6 252.1 248.0 0.00 0.0000000 35.9 40.2
2021-03-02 03:25:00 25.4 82.6 20.8 15.6 25.4 9.7 11.9 10.3 251.9 249.2 0.00 0.0000000 35.9 40.2
2021-03-02 03:30:00 25.3 82.9 20.9 15.7 25.3 9.6 10.8 9.8 267.4 253.7 0.00 0.0000000 35.9 40.1
2021-03-02 03:35:00 25.2 83.1 20.8 16.1 25.2 8.7 11.2 9.8 239.3 254.7 0.00 0.0000000 35.8 40.0
2021-03-02 03:40:00 25.0 84.1 20.9 15.5 25.0 9.2 10.6 9.3 256.8 253.0 0.00 0.0000000 35.8 40.0
2021-03-02 03:45:00 25.2 84.4 21.2 15.7 25.2 9.2 10.8 9.2 260.5 252.2 0.00 0.0000000 35.8 40.0
2021-03-02 03:50:00 25.1 84.2 21.0 15.1 25.1 10.1 10.1 8.7 254.7 253.6 0.00 0.0000000 35.7 39.9
2021-03-02 03:55:00 24.8 84.0 20.7 15.3 24.8 9.2 10.5 9.0 253.3 256.8 0.00 0.0000000 35.7 39.9
2021-03-02 04:00:00 24.5 85.1 20.6 14.8 24.5 9.2 10.5 9.4 256.2 256.3 0.00 0.0000000 35.7 39.8
2021-03-02 04:05:00 24.8 84.9 20.9 14.3 24.8 10.8 11.2 10.0 258.2 254.3 0.00 0.0000000 35.6 39.8
2021-03-02 04:10:00 25.6 83.5 21.3 14.2 25.6 13.1 13.1 10.8 247.1 248.6 0.00 0.0000000 35.6 39.7
2021-03-02 04:15:00 25.8 82.2 21.1 15.8 25.8 10.5 13.1 11.2 258.6 245.4 0.00 0.0000000 35.5 39.7
2021-03-02 04:20:00 26.0 82.5 21.4 15.2 26.0 11.9 12.2 10.9 245.9 243.0 0.00 0.0000000 35.5 39.6
2021-03-02 04:25:00 26.0 82.5 21.4 15.6 26.0 11.2 11.9 10.7 261.9 246.4 0.00 0.0000000 35.5 39.6
2021-03-02 04:30:00 25.7 83.2 21.3 15.9 25.7 9.9 12.1 10.6 245.5 245.3 0.00 0.0000000 35.4 39.5
2021-03-02 04:35:00 25.4 84.7 21.4 14.8 25.4 11.3 12.1 10.2 242.6 251.3 0.00 0.0000000 35.4 39.5
2021-03-02 04:40:00 25.3 84.4 21.2 15.6 25.3 9.6 11.5 10.3 248.9 246.1 0.00 0.0000000 35.3 39.4
2021-03-02 04:45:00 24.8 85.4 21.0 15.1 24.8 9.4 11.0 9.6 246.9 243.3 0.00 0.0000000 35.3 39.4
2021-03-02 04:50:00 24.1 85.9 20.5 15.3 24.1 7.8 10.3 8.8 236.3 243.5 0.00 0.0000000 35.3 39.4
2021-03-02 04:55:00 24.0 86.6 20.6 14.7 24.0 8.5 9.7 8.6 238.2 245.0 0.00 0.0000000 35.2 39.3
2021-03-02 05:00:00 24.0 86.2 20.4 14.1 24.0 9.4 10.3 9.0 260.3 245.9 0.00 0.0000000 35.2 39.3
2021-03-02 05:05:00 23.9 86.5 20.5 15.3 23.9 7.6 10.5 8.9 254.7 247.5 0.00 0.0000000 35.1 39.2
2021-03-02 05:10:00 24.2 86.0 20.6 14.5 24.2 9.2 11.5 9.3 262.9 247.5 0.00 0.0000000 35.1 39.2
2021-03-02 05:15:00 24.1 86.1 20.6 15.1 24.1 8.1 10.6 8.8 251.4 242.6 0.00 0.0000000 35.0 39.2
2021-03-02 05:20:00 23.9 87.1 20.6 14.3 23.9 8.8 9.7 8.3 247.2 245.1 0.00 0.0000000 35.0 39.1
2021-03-02 05:25:00 24.0 86.0 20.5 14.6 24.0 8.7 9.9 8.5 248.2 246.8 0.00 0.0000000 34.9 39.1
2021-03-02 05:30:00 24.2 85.4 20.5 14.9 24.2 8.7 9.9 8.8 254.6 245.1 0.00 0.0000000 34.9 39.0
2021-03-02 05:35:00 24.5 85.3 20.8 15.3 24.5 8.7 10.3 8.8 250.4 245.7 0.00 0.0000000 34.8 39.0
2021-03-02 05:40:00 24.3 85.0 20.5 14.7 24.3 9.2 10.5 9.1 251.8 243.7 0.00 0.0000000 34.8 38.9
2021-03-02 05:45:00 24.2 84.9 20.3 15.4 24.2 8.0 10.1 9.1 243.1 242.0 0.00 0.0000000 34.7 38.9
2021-03-02 05:50:00 24.1 85.3 20.3 14.1 24.1 9.7 10.6 9.3 249.4 244.9 0.00 0.0000000 34.7 38.9
2021-03-02 05:55:00 24.2 86.6 20.8 13.9 24.2 10.3 11.7 10.0 251.8 247.7 0.00 0.0000000 34.6 38.8
2021-03-02 06:00:00 24.5 87.0 21.1 14.5 24.5 9.7 12.6 10.2 251.0 247.0 0.00 0.0000000 34.6 38.8
2021-03-02 06:05:00 24.8 88.0 21.7 14.3 24.8 10.8 11.5 10.3 247.6 250.1 0.00 0.0000000 34.5 38.7
2021-03-02 06:10:00 25.0 87.2 21.7 15.1 25.0 9.7 12.6 10.3 241.0 248.5 0.00 0.0000000 34.5 38.7
2021-03-02 06:15:00 25.0 87.3 21.7 13.9 25.0 12.1 13.0 11.2 237.9 246.5 0.00 0.0000000 34.4 38.6
2021-03-02 06:20:00 24.8 87.1 21.5 15.2 24.8 9.4 13.0 11.0 251.6 249.0 0.00 0.0004759 34.4 38.6
2021-03-02 06:25:00 24.6 87.5 21.4 14.6 24.6 9.9 12.2 10.5 248.5 251.4 0.00 0.0041122 34.4 38.5
2021-03-02 06:30:00 24.4 87.4 21.2 14.5 24.4 9.6 11.5 9.8 251.0 251.6 0.00 0.0092549 34.3 38.5
2021-03-02 06:35:00 24.5 87.3 21.3 14.7 24.5 9.6 11.3 9.7 249.0 250.1 0.00 0.0144535 34.3 38.5
2021-03-02 06:40:00 25.3 85.6 21.5 15.5 25.3 9.7 12.2 10.3 240.8 250.9 0.00 0.0200701 34.3 38.4
2021-03-02 06:45:00 25.6 84.1 21.4 15.9 25.6 9.7 12.4 10.7 237.7 249.5 0.00 0.0249958 34.3 38.4
2021-03-02 06:50:00 25.8 83.2 21.4 16.5 25.8 9.2 12.6 10.3 246.8 247.4 0.00 0.0294543 34.2 38.3
2021-03-02 06:55:00 26.2 82.2 21.5 16.9 26.2 9.2 10.8 9.3 246.6 252.1 0.00 0.0342386 34.2 38.3
2021-03-02 07:00:00 26.8 80.6 21.6 17.8 26.8 9.0 11.7 9.8 261.2 249.3 0.00 0.0393425 34.2 38.3
2021-03-02 07:05:00 27.5 79.4 21.9 17.9 27.5 10.3 11.9 10.2 238.2 248.8 0.00 0.0444095 34.3 38.2
2021-03-02 07:10:00 28.0 78.4 22.1 18.3 28.0 10.6 12.2 10.1 241.1 247.8 0.00 0.0493963 34.3 38.2
2021-03-02 07:15:00 28.5 77.4 22.3 19.3 28.5 10.1 12.1 10.3 246.2 250.4 0.00 0.0545564 34.3 38.2
2021-03-02 07:20:00 28.9 76.7 22.5 19.4 28.9 10.8 13.3 11.3 245.5 248.8 0.00 0.0595929 34.4 38.2
2021-03-02 07:25:00 29.3 75.5 22.5 20.3 29.3 10.1 14.4 11.7 251.6 246.9 0.00 0.0645980 34.5 38.1
2021-03-02 07:30:00 30.1 72.7 22.4 20.3 30.1 12.1 14.2 11.9 229.3 243.8 0.00 0.0697072 34.7 38.1

Data is courtesy of the NM Climate Center. DO NOT USE IN LEGAL PROCEEDINGS.